createdAt,value
2018-01-13T00:00:18.024Z,32.03
2018-01-13T00:02:45.685Z,32.10
2018-01-13T00:05:14.113Z,31.33
2018-01-13T00:07:41.783Z,32.00
2018-01-13T00:10:10.204Z,30.63
2018-01-13T00:12:37.874Z,32.10
2018-01-13T00:15:05.431Z,32.37
2018-01-13T00:17:32.989Z,31.10
2018-01-13T00:20:00.511Z,31.13
2018-01-13T00:22:38.719Z,31.13
2018-01-13T00:25:06.258Z,31.27
2018-01-13T00:27:33.789Z,31.57
2018-01-13T00:30:01.334Z,30.80
2018-01-13T00:32:28.868Z,31.13
2018-01-13T00:34:57.157Z,32.10
2018-01-13T00:37:24.716Z,32.40
2018-01-13T00:39:52.253Z,32.67
2018-01-13T00:42:20.540Z,31.13
2018-01-13T00:44:48.882Z,31.93
2018-01-13T00:47:16.512Z,33.87
2018-01-13T00:49:44.124Z,33.90
2018-01-13T00:52:12.554Z,32.57
2018-01-13T00:54:40.339Z,33.37
2018-01-13T00:57:07.974Z,32.90
2018-01-13T00:59:35.552Z,35.13
2018-01-13T01:02:03.069Z,33.03
2018-01-13T01:04:31.357Z,30.43
2018-01-13T01:06:59.688Z,32.37
2018-01-13T01:09:27.208Z,33.13
2018-01-13T01:11:54.731Z,33.23
2018-01-13T01:14:22.273Z,33.00
2018-01-13T01:16:49.820Z,32.60
2018-01-13T01:19:17.456Z,32.33
2018-01-13T01:21:45.049Z,31.20
2018-01-13T01:24:12.848Z,30.63
2018-01-13T01:26:41.267Z,31.37
2018-01-13T01:29:10.206Z,30.57
2018-01-13T01:31:37.888Z,30.53
2018-01-13T01:34:05.429Z,29.70
2018-01-13T01:36:32.977Z,30.80
2018-01-13T01:39:00.500Z,29.53
2018-01-13T01:41:28.024Z,28.03
2018-01-13T01:43:56.332Z,27.87
2018-01-13T01:46:23.853Z,29.27
2018-01-13T01:48:51.385Z,29.40
2018-01-13T01:51:18.956Z,27.80
2018-01-13T01:53:46.594Z,29.47
2018-01-13T01:56:14.420Z,31.03
2018-01-13T01:58:42.100Z,30.07
2018-01-13T02:01:09.990Z,29.93
2018-01-13T02:03:38.868Z,30.13
2018-01-13T02:06:06.408Z,29.17
2018-01-13T02:08:34.689Z,30.03
2018-01-13T02:11:02.228Z,29.73
2018-01-13T02:13:30.533Z,29.37
2018-01-13T02:15:58.048Z,29.93
2018-01-13T02:18:25.568Z,29.93
2018-01-13T02:20:53.109Z,30.43
2018-01-13T02:23:20.659Z,27.27
2018-01-13T02:25:48.292Z,28.80
2018-01-13T02:28:15.881Z,26.60
2018-01-13T02:30:43.488Z,27.77
2018-01-13T02:33:11.334Z,30.20
2018-01-13T02:35:40.123Z,29.00
2018-01-13T02:38:07.796Z,28.97
2018-01-13T02:40:35.392Z,28.50
2018-01-13T02:43:03.581Z,27.40
2018-01-13T02:45:32.271Z,26.27
2018-01-13T02:48:01.002Z,24.50
2018-01-13T02:50:28.578Z,24.60
2018-01-13T02:52:56.104Z,26.90
2018-01-13T02:55:23.674Z,28.17
2018-01-13T02:57:51.205Z,28.90
2018-01-13T03:00:19.533Z,26.13
2018-01-13T03:02:47.313Z,26.40
2018-01-13T03:05:14.898Z,28.93
2018-01-13T03:07:43.236Z,27.60
2018-01-13T03:10:11.176Z,27.60
2018-01-13T03:12:39.091Z,26.23
2018-01-13T03:15:06.777Z,25.03
2018-01-13T03:17:34.308Z,25.70
2018-01-13T03:20:01.856Z,25.63
2018-01-13T03:22:29.368Z,27.93
2018-01-13T03:24:57.683Z,29.73
2018-01-13T03:27:25.816Z,29.63
2018-01-13T03:29:54.103Z,31.57
2018-01-13T03:32:21.657Z,32.80
2018-01-13T03:34:49.964Z,31.27
2018-01-13T03:37:18.010Z,32.03
2018-01-13T03:39:45.678Z,30.47
2018-01-13T03:42:13.477Z,31.77
2018-01-13T03:44:41.609Z,30.17
2018-01-13T03:47:09.397Z,31.67
2018-01-13T03:49:37.305Z,31.63
2018-01-13T03:52:04.848Z,32.30
2018-01-13T03:54:32.374Z,31.50
2018-01-13T03:56:59.917Z,30.80
2018-01-13T03:59:28.964Z,29.77
2018-01-13T04:01:56.525Z,28.97
2018-01-13T04:04:24.049Z,28.17
2018-01-13T04:06:51.626Z,27.37
2018-01-13T04:09:19.362Z,27.13
2018-01-13T04:11:46.936Z,25.30
2018-01-13T04:14:14.574Z,27.93
2018-01-13T04:16:43.040Z,27.30
2018-01-13T04:19:12.134Z,27.40
2018-01-13T04:21:40.797Z,25.97
2018-01-13T04:24:09.551Z,26.03
2018-01-13T04:26:37.219Z,27.93
2018-01-13T04:29:04.794Z,26.73
2018-01-13T04:31:32.321Z,26.23
2018-01-13T04:33:59.857Z,25.07
2018-01-13T04:36:27.378Z,27.53
2018-01-13T04:38:54.933Z,27.07
2018-01-13T04:41:22.460Z,25.73
2018-01-13T04:43:50.106Z,24.20
2018-01-13T04:46:18.520Z,24.00
2018-01-13T04:48:46.182Z,24.57
2018-01-13T04:51:14.256Z,23.50
2018-01-13T04:53:42.124Z,23.90
2018-01-13T04:56:10.009Z,22.87
2018-01-13T04:58:37.720Z,20.53
2018-01-13T05:01:05.261Z,22.20
2018-01-13T05:03:32.805Z,23.60
2018-01-13T05:06:00.334Z,24.37
2018-01-13T05:08:27.858Z,28.33
2018-01-13T05:10:56.157Z,25.33
2018-01-13T05:13:23.684Z,25.27
2018-01-13T05:15:51.231Z,24.93
2018-01-13T05:18:18.814Z,22.90
2018-01-13T05:20:47.308Z,24.33
2018-01-13T05:23:15.093Z,21.50
2018-01-13T05:25:42.785Z,22.07
2018-01-13T05:28:11.720Z,23.27
2018-01-13T05:30:39.933Z,22.67
2018-01-13T05:33:08.815Z,22.93
2018-01-13T05:35:38.731Z,24.00
2018-01-13T05:38:06.577Z,23.10
2018-01-13T05:40:34.378Z,22.13
2018-01-13T05:43:02.358Z,23.13
2018-01-13T05:45:29.884Z,23.20
2018-01-13T05:47:57.470Z,27.03
2018-01-13T05:50:24.994Z,29.33
2018-01-13T05:52:52.542Z,30.07
2018-01-13T05:55:20.874Z,30.90
2018-01-13T05:57:48.459Z,32.73
2018-01-13T06:00:16.497Z,32.87
2018-01-13T06:02:44.233Z,34.07
2018-01-13T06:05:12.928Z,38.07
2018-01-13T06:07:40.844Z,44.20
2018-01-13T06:10:08.603Z,46.03
2018-01-13T06:12:36.149Z,57.33
2018-01-13T06:15:03.737Z,57.07
2018-01-13T06:17:33.387Z,56.73
2018-01-13T06:20:00.973Z,52.60
2018-01-13T06:22:29.316Z,60.73
2018-01-13T06:24:56.887Z,56.20
2018-01-13T06:27:24.412Z,56.67
2018-01-13T06:29:51.977Z,45.97
2018-01-13T06:32:19.510Z,41.93
2018-01-13T06:34:47.121Z,41.60
2018-01-13T06:37:14.829Z,40.23
2018-01-13T06:39:42.537Z,39.90
2018-01-13T06:42:10.538Z,41.07
2018-01-13T06:44:38.408Z,42.73
2018-01-13T06:47:06.865Z,41.17
2018-01-13T06:49:34.493Z,39.33
2018-01-13T06:52:02.265Z,38.37
2018-01-13T06:54:29.910Z,39.33
2018-01-13T06:56:58.905Z,38.73
2018-01-13T06:59:26.431Z,36.33
2018-01-13T07:01:53.980Z,36.70
2018-01-13T07:04:21.501Z,35.27
2018-01-13T07:06:49.084Z,32.07
2018-01-13T07:09:17.560Z,35.43
2018-01-13T07:11:46.080Z,35.27
2018-01-13T07:14:13.969Z,35.40
2018-01-13T07:16:41.736Z,35.27
2018-01-13T07:19:09.501Z,34.33
2018-01-13T07:21:37.037Z,34.80
2018-01-13T07:24:05.400Z,34.37
2018-01-13T07:26:33.081Z,32.60
2018-01-13T07:29:00.944Z,34.47
2018-01-13T07:31:28.536Z,34.33
2018-01-13T07:33:56.106Z,32.23
2018-01-13T07:36:23.633Z,30.73
2018-01-13T07:38:51.169Z,31.10
2018-01-13T07:41:19.097Z,31.20
2018-01-13T07:43:58.151Z,29.47
2018-01-13T07:46:32.278Z,29.17
2018-01-13T07:49:05.060Z,28.80
2018-01-13T07:51:46.389Z,26.57
2018-01-13T07:57:15.319Z,27.20
2018-01-13T08:05:50.925Z,23.57
2018-01-13T08:11:41.955Z,23.33
2018-01-13T08:14:16.818Z,22.20
2018-01-13T08:19:49.245Z,19.10
2018-01-13T08:22:25.232Z,20.13
2018-01-13T08:24:53.308Z,17.90
2018-01-13T08:27:21.602Z,18.57
2018-01-13T08:29:50.012Z,16.77
2018-01-13T08:32:17.782Z,15.87
2018-01-13T08:34:45.534Z,16.90
2018-01-13T08:37:13.709Z,16.37
2018-01-13T08:39:41.377Z,15.50
2018-01-13T08:42:09.135Z,15.83
2018-01-13T08:44:36.797Z,15.93
2018-01-13T08:47:31.728Z,16.00
2018-01-13T08:49:59.710Z,16.47
2018-01-13T08:52:27.241Z,14.70
2018-01-13T08:54:54.756Z,16.93
2018-01-13T08:57:23.077Z,16.70
2018-01-13T08:59:50.591Z,16.57
2018-01-13T09:02:19.796Z,16.40
2018-01-13T09:04:47.533Z,17.17
2018-01-13T09:07:15.250Z,16.10
2018-01-13T09:09:43.273Z,17.10
2018-01-13T09:12:11.858Z,15.27
2018-01-13T09:14:40.326Z,15.33
2018-01-13T09:17:08.596Z,14.63
2018-01-13T09:19:36.839Z,15.27
2018-01-13T09:22:04.416Z,14.30
2018-01-13T09:24:32.574Z,14.70
2018-01-13T09:27:00.146Z,14.07
2018-01-13T09:29:27.661Z,13.23
2018-01-13T09:31:55.946Z,13.93
2018-01-13T09:34:24.372Z,13.43
2018-01-13T09:36:52.246Z,13.93
2018-01-13T09:39:20.084Z,12.27
2018-01-13T09:41:48.157Z,13.20
2018-01-13T09:44:16.054Z,12.67
2018-01-13T09:46:45.329Z,12.97
2018-01-13T09:49:13.085Z,13.67
2018-01-13T09:51:41.512Z,12.67
2018-01-13T09:54:09.341Z,13.73
2018-01-13T09:56:36.974Z,13.77
2018-01-13T09:59:07.735Z,14.10
2018-01-13T10:01:35.356Z,14.70
2018-01-13T10:04:04.310Z,14.27
2018-01-13T10:06:31.938Z,15.97
2018-01-13T10:08:59.560Z,13.27
2018-01-13T10:11:27.102Z,13.67
2018-01-13T10:13:54.626Z,14.60
2018-01-13T10:16:22.149Z,14.17
2018-01-13T10:18:50.005Z,14.27
2018-01-13T10:21:17.735Z,15.03
2018-01-13T10:23:46.100Z,15.40
2018-01-13T10:26:14.499Z,13.80
2018-01-13T10:28:42.959Z,15.37
2018-01-13T10:31:12.076Z,14.50
2018-01-13T10:33:40.683Z,14.20
2018-01-13T10:36:09.124Z,14.00
2018-01-13T10:38:36.887Z,13.00
2018-01-13T10:41:04.709Z,13.20
2018-01-13T10:43:32.678Z,12.50
2018-01-13T10:46:01.694Z,13.17
2018-01-13T10:48:30.054Z,12.23
2018-01-13T10:50:57.577Z,13.07
2018-01-13T10:53:25.115Z,12.90
2018-01-13T10:55:52.933Z,12.17
2018-01-13T10:58:20.846Z,13.07
2018-01-13T11:00:48.433Z,12.83
2018-01-13T11:03:18.184Z,12.10
2018-01-13T11:05:46.635Z,11.30
2018-01-13T11:08:14.337Z,11.70
2018-01-13T11:10:42.797Z,11.87
2018-01-13T11:13:10.608Z,12.10
2018-01-13T11:15:38.356Z,10.57
2018-01-13T11:18:05.908Z,11.03
2018-01-13T11:20:33.930Z,11.67
2018-01-13T11:23:01.473Z,10.40
2018-01-13T11:25:29.046Z,10.57
2018-01-13T11:27:56.570Z,11.43
2018-01-13T11:30:24.873Z,10.10
2018-01-13T11:32:52.432Z,10.43
2018-01-13T11:35:20.022Z,11.33
2018-01-13T11:37:48.396Z,10.63
2018-01-13T11:40:16.149Z,11.67
2018-01-13T11:42:44.076Z,10.77
2018-01-13T11:45:13.120Z,12.10
2018-01-13T11:47:41.082Z,12.50
2018-01-13T11:50:09.769Z,12.20
2018-01-13T11:52:37.476Z,12.07
2018-01-13T11:55:05.812Z,10.80
2018-01-13T11:57:33.567Z,10.33
2018-01-13T12:00:01.093Z,10.83
2018-01-13T12:02:29.730Z,11.23
2018-01-13T12:04:57.253Z,9.07
2018-01-13T12:07:25.537Z,9.53
2018-01-13T12:09:53.935Z,10.10
2018-01-13T12:12:21.482Z,10.17
2018-01-13T12:14:50.149Z,10.20
2018-01-13T12:17:17.771Z,10.37
2018-01-13T12:19:45.509Z,9.23
2018-01-13T12:22:14.945Z,10.20
2018-01-13T12:24:43.329Z,9.80
2018-01-13T12:27:11.380Z,9.37
2018-01-13T12:29:39.798Z,9.60
2018-01-13T12:32:09.353Z,9.57
2018-01-13T12:34:37.321Z,9.83
2018-01-13T12:37:05.371Z,9.13
2018-01-13T12:39:33.721Z,10.20
2018-01-13T12:42:01.549Z,9.33
2018-01-13T12:44:29.120Z,9.40
2018-01-13T12:46:56.653Z,9.50
2018-01-13T12:49:24.201Z,8.73
2018-01-13T12:51:51.726Z,10.00
2018-01-13T12:54:19.592Z,8.07
2018-01-13T12:56:47.147Z,8.50
2018-01-13T12:59:14.793Z,9.30
2018-01-13T13:01:42.980Z,9.33
2018-01-13T13:04:12.650Z,8.83
2018-01-13T13:06:41.249Z,9.60
2018-01-13T13:09:10.576Z,9.30
2018-01-13T13:11:38.287Z,9.50
2018-01-13T13:14:06.735Z,9.77
2018-01-13T13:16:34.664Z,9.73
2018-01-13T13:19:02.183Z,8.80
2018-01-13T13:21:30.598Z,8.93
2018-01-13T13:23:58.591Z,8.17
2018-01-13T13:26:26.113Z,8.43
2018-01-13T13:28:53.635Z,8.53
2018-01-13T13:31:21.982Z,8.80
2018-01-13T13:33:49.577Z,9.20
2018-01-13T13:36:17.199Z,8.30
2018-01-13T13:41:36.392Z,9.83
2018-01-13T13:44:03.904Z,8.93
2018-01-13T13:46:32.204Z,9.03
2018-01-13T13:48:59.738Z,9.30
2018-01-13T13:51:28.045Z,8.97
2018-01-13T13:53:55.584Z,9.97
2018-01-13T13:56:23.116Z,10.23
2018-01-13T13:58:50.687Z,9.17
2018-01-13T14:01:28.592Z,9.60
2018-01-13T14:03:47.079Z,9.63
2018-01-13T14:06:14.860Z,9.30
2018-01-13T14:08:43.729Z,9.00
2018-01-13T14:11:11.482Z,8.67
2018-01-13T14:13:39.813Z,8.60
2018-01-13T14:16:08.581Z,8.57
2018-01-13T14:18:36.139Z,7.33
2018-01-13T14:21:03.680Z,8.90
2018-01-13T14:23:31.198Z,8.03
2018-01-13T14:25:59.538Z,8.30
2018-01-13T14:28:27.064Z,7.90
2018-01-13T14:30:54.621Z,8.07
2018-01-13T14:33:22.128Z,6.80
2018-01-13T14:35:49.680Z,7.97
2018-01-13T14:38:17.523Z,7.00
2018-01-13T14:40:45.256Z,7.37
2018-01-13T14:43:14.486Z,7.10
2018-01-13T14:45:42.350Z,8.07
2018-01-13T14:48:11.504Z,7.83
2018-01-13T14:50:41.091Z,8.23
2018-01-13T14:53:10.462Z,7.73
2018-01-13T14:55:39.500Z,7.23
2018-01-13T14:58:07.630Z,7.63
2018-01-13T15:00:35.193Z,7.37
2018-01-13T15:03:02.730Z,7.40
2018-01-13T15:05:30.264Z,7.63
2018-01-13T15:07:57.824Z,8.13
2018-01-13T15:10:25.364Z,7.60
2018-01-13T15:12:52.952Z,8.27
2018-01-13T15:15:21.272Z,7.93
2018-01-13T15:17:48.837Z,7.37
2018-01-13T15:20:17.029Z,7.40
2018-01-13T15:22:44.792Z,7.03
2018-01-13T15:25:12.771Z,7.13
2018-01-13T15:27:42.804Z,7.17
2018-01-13T15:30:12.520Z,7.53
2018-01-13T15:32:41.540Z,7.43
2018-01-13T15:35:10.720Z,7.13
2018-01-13T15:37:41.545Z,7.90
2018-01-13T15:40:12.318Z,8.37
2018-01-13T15:42:40.644Z,7.80
2018-01-13T15:45:11.035Z,7.70
2018-01-13T15:47:40.026Z,8.43
2018-01-13T15:50:07.896Z,7.97
2018-01-13T15:55:29.349Z,6.97
2018-01-13T15:57:56.957Z,8.47
2018-01-13T16:00:25.255Z,8.30
2018-01-13T16:02:52.764Z,7.60
2018-01-13T16:05:20.595Z,7.90
2018-01-13T16:07:48.569Z,8.10
2018-01-13T16:10:16.446Z,9.00
2018-01-13T16:12:44.302Z,8.53
2018-01-13T16:15:12.227Z,8.07
2018-01-13T16:17:40.662Z,8.63
2018-01-13T16:20:08.827Z,9.43
2018-01-13T16:22:36.452Z,9.47
2018-01-13T16:25:04.832Z,9.23
2018-01-13T16:27:33.158Z,9.17
2018-01-13T16:30:01.214Z,9.00
2018-01-13T16:32:28.902Z,7.90
2018-01-13T16:34:56.502Z,9.80
2018-01-13T16:37:24.011Z,9.30
2018-01-13T16:39:51.757Z,9.50
2018-01-13T16:42:19.448Z,9.83
2018-01-13T16:44:48.837Z,10.07
2018-01-13T16:47:16.854Z,10.07
2018-01-13T16:49:45.587Z,9.43
2018-01-13T16:52:13.191Z,9.67
2018-01-13T16:54:41.085Z,11.50
2018-01-13T16:57:09.500Z,11.03
2018-01-13T16:59:37.081Z,10.60
2018-01-13T17:02:05.085Z,11.40
2018-01-13T17:04:34.121Z,10.60
2018-01-13T17:07:01.794Z,10.67
2018-01-13T17:09:29.413Z,12.37
2018-01-13T17:11:57.701Z,12.70
2018-01-13T17:14:25.406Z,12.50
2018-01-13T17:16:53.276Z,12.63
2018-01-13T17:19:21.084Z,11.37
2018-01-13T17:21:49.841Z,11.70
2018-01-13T17:24:17.777Z,11.50
2018-01-13T17:26:46.052Z,11.87
2018-01-13T17:29:15.006Z,11.90
2018-01-13T17:31:43.637Z,11.50
2018-01-13T17:34:11.815Z,12.40
2018-01-13T17:36:42.575Z,12.47
2018-01-13T17:39:11.257Z,13.23
2018-01-13T17:41:40.141Z,11.70
2018-01-13T17:44:08.005Z,12.03
2018-01-13T17:46:36.434Z,10.67
2018-01-13T17:49:04.902Z,11.43
2018-01-13T17:51:32.627Z,8.00
2018-01-13T17:54:00.521Z,11.63
2018-01-13T17:56:28.115Z,10.27
2018-01-13T17:58:56.390Z,8.47
2018-01-13T18:01:24.692Z,9.90
2018-01-13T18:03:52.380Z,11.43
2018-01-13T18:06:20.422Z,11.97
2018-01-13T18:08:48.270Z,12.60
2018-01-13T18:11:16.263Z,13.03
2018-01-13T18:13:43.877Z,12.63
2018-01-13T18:16:11.930Z,13.47
2018-01-13T18:18:41.332Z,11.90
2018-01-13T18:24:01.404Z,13.43
2018-01-13T18:26:28.964Z,12.77
2018-01-13T18:28:56.515Z,13.47
2018-01-13T18:31:24.085Z,13.43
2018-01-13T18:33:51.619Z,12.90
2018-01-13T18:36:20.073Z,13.53
2018-01-13T18:38:48.403Z,12.63
2018-01-13T18:41:16.290Z,12.43
2018-01-13T18:43:43.955Z,12.63
2018-01-13T18:46:13.027Z,12.83
2018-01-13T18:48:43.057Z,13.83
2018-01-13T18:51:11.118Z,12.40
2018-01-13T18:53:39.013Z,12.67
2018-01-13T18:56:07.567Z,14.37
2018-01-13T18:58:36.251Z,13.67
2018-01-13T19:01:03.983Z,14.47
2018-01-13T19:03:32.214Z,13.20
2018-01-13T19:05:59.964Z,12.93
2018-01-13T19:08:29.211Z,13.90
2018-01-13T19:10:56.770Z,11.73
2018-01-13T19:13:25.082Z,12.00
2018-01-13T19:15:52.636Z,11.73
2018-01-13T19:18:20.704Z,11.03
2018-01-13T19:20:49.093Z,11.97
2018-01-13T19:23:17.195Z,10.67
2018-01-13T19:25:45.275Z,12.03
2018-01-13T19:28:15.173Z,10.60
2018-01-13T19:30:43.264Z,10.17
2018-01-13T19:33:11.248Z,10.90
2018-01-13T19:35:39.964Z,10.00
2018-01-13T19:38:07.768Z,11.17
2018-01-13T19:40:35.302Z,10.23
2018-01-13T19:43:03.087Z,9.77
2018-01-13T19:45:31.473Z,9.93
2018-01-13T19:47:59.982Z,10.23
2018-01-13T19:50:27.522Z,10.10
2018-01-13T19:52:55.114Z,9.60
2018-01-13T19:55:22.659Z,10.67
2018-01-13T19:57:50.182Z,9.70
2018-01-13T20:00:17.776Z,9.87
2018-01-13T20:02:45.391Z,10.17
2018-01-13T20:05:13.135Z,9.73
2018-01-13T20:07:41.037Z,10.07
2018-01-13T20:10:08.918Z,10.33
2018-01-13T20:12:36.533Z,10.40
2018-01-13T20:15:04.845Z,10.13
2018-01-13T20:17:43.393Z,10.87
2018-01-13T20:20:12.005Z,9.83
2018-01-13T20:22:52.902Z,10.20
2018-01-13T20:28:15.506Z,10.17
2018-01-13T20:30:44.632Z,10.37
2018-01-13T20:33:12.988Z,10.83
2018-01-13T20:35:41.477Z,11.83
2018-01-13T20:38:10.935Z,11.67
2018-01-13T20:40:39.851Z,10.80
2018-01-13T20:43:07.480Z,11.10
2018-01-13T20:45:35.100Z,11.43
2018-01-13T20:48:02.629Z,9.97
2018-01-13T20:50:30.287Z,10.63
2018-01-13T20:52:57.838Z,10.40
2018-01-13T20:55:25.383Z,11.73
2018-01-13T20:57:52.903Z,10.67
2018-01-13T21:00:20.457Z,11.30
2018-01-13T21:02:47.996Z,10.57
2018-01-13T21:05:15.761Z,11.40
2018-01-13T21:07:43.381Z,11.13
2018-01-13T21:10:12.508Z,10.83
2018-01-13T21:12:40.221Z,11.20
2018-01-13T21:15:08.652Z,11.43
2018-01-13T21:17:36.568Z,11.37
2018-01-13T21:20:05.105Z,11.17
2018-01-13T21:22:33.322Z,11.80
2018-01-13T21:25:01.269Z,9.67
2018-01-13T21:27:28.810Z,11.23
2018-01-13T21:29:56.374Z,11.00
2018-01-13T21:32:23.913Z,10.60
2018-01-13T21:34:51.440Z,10.80
2018-01-13T21:37:18.978Z,10.53
2018-01-13T21:39:46.653Z,10.77
2018-01-13T21:42:15.154Z,11.50
2018-01-13T21:44:43.625Z,10.77
2018-01-13T21:47:12.422Z,9.83
2018-01-13T21:49:40.844Z,12.60
2018-01-13T21:52:08.913Z,11.13
2018-01-13T21:54:37.808Z,11.47
2018-01-13T21:57:05.443Z,11.83
2018-01-13T21:59:33.098Z,12.97
2018-01-13T22:02:01.502Z,12.57
2018-01-13T22:04:29.167Z,9.37
2018-01-13T22:06:56.748Z,11.97
2018-01-13T22:09:24.297Z,11.63
2018-01-13T22:11:51.863Z,11.33
2018-01-13T22:14:19.393Z,12.27
2018-01-13T22:16:47.008Z,10.80
2018-01-13T22:19:14.739Z,11.87
2018-01-13T22:21:42.634Z,11.43
2018-01-13T22:24:10.539Z,12.00
2018-01-13T22:26:38.426Z,11.87
2018-01-13T22:29:06.050Z,10.47
2018-01-13T22:31:33.587Z,12.23
2018-01-13T22:34:01.159Z,12.30
2018-01-13T22:36:28.736Z,11.00
2018-01-13T22:38:56.289Z,12.10
2018-01-13T22:41:23.904Z,11.47
2018-01-13T22:43:51.460Z,11.93
2018-01-13T22:46:19.069Z,11.00
2018-01-13T22:48:46.733Z,12.73
2018-01-13T22:51:14.561Z,10.83
2018-01-13T22:53:42.545Z,12.10
2018-01-13T22:56:11.018Z,10.50
2018-01-13T22:58:40.410Z,12.77
2018-01-13T23:01:09.182Z,11.03
2018-01-13T23:03:36.798Z,12.03
2018-01-13T23:06:04.340Z,12.00
2018-01-13T23:08:32.223Z,12.37
2018-01-13T23:10:59.744Z,11.03
2018-01-13T23:13:27.272Z,11.87
2018-01-13T23:15:55.596Z,11.47
2018-01-13T23:18:23.130Z,11.70
2018-01-13T23:20:51.005Z,12.03
2018-01-13T23:23:18.670Z,12.77
2018-01-13T23:25:46.291Z,13.10
2018-01-13T23:28:13.956Z,12.70
2018-01-13T23:30:42.461Z,13.37
2018-01-13T23:33:10.356Z,13.33
2018-01-13T23:35:38.536Z,11.57
2018-01-13T23:38:06.144Z,11.87
2018-01-13T23:40:34.878Z,13.40
2018-01-13T23:43:02.433Z,13.67
2018-01-13T23:45:29.972Z,12.97
2018-01-13T23:47:57.506Z,12.53
2018-01-13T23:50:25.041Z,12.73
2018-01-13T23:52:52.568Z,12.97
2018-01-13T23:55:20.111Z,13.43
2018-01-13T23:57:47.652Z,13.20
